sensor_id;sensor_type;location;lat;lon;timestamp;P1;durP1;ratioP1;P2;durP2;ratioP2
64235;SDS011;50564;47.402;9.740;2024-02-21T00:04:05;1.20;;;1.05;;
64235;SDS011;50564;47.402;9.740;2024-02-21T00:09:06;3.47;;;1.00;;
64235;SDS011;50564;47.402;9.740;2024-02-21T00:14:06;1.35;;;0.90;;
64235;SDS011;50564;47.402;9.740;2024-02-21T00:19:07;2.25;;;0.85;;
64235;SDS011;50564;47.402;9.740;2024-02-21T00:24:08;4.25;;;1.52;;
64235;SDS011;50564;47.402;9.740;2024-02-21T00:29:09;3.22;;;1.40;;
64235;SDS011;50564;47.402;9.740;2024-02-21T00:34:09;3.17;;;1.50;;
64235;SDS011;50564;47.402;9.740;2024-02-21T00:39:10;5.15;;;2.13;;
64235;SDS011;50564;47.402;9.740;2024-02-21T00:44:11;2.97;;;1.90;;
64235;SDS011;50564;47.402;9.740;2024-02-21T00:49:11;3.53;;;2.10;;
64235;SDS011;50564;47.402;9.740;2024-02-21T00:54:12;4.40;;;2.30;;
64235;SDS011;50564;47.402;9.740;2024-02-21T00:59:21;2.58;;;1.48;;
64235;SDS011;50564;47.402;9.740;2024-02-21T01:04:22;5.82;;;1.58;;
64235;SDS011;50564;47.402;9.740;2024-02-21T01:09:24;1.88;;;1.08;;
64235;SDS011;50564;47.402;9.740;2024-02-21T01:14:25;1.88;;;1.10;;
64235;SDS011;50564;47.402;9.740;2024-02-21T01:19:25;2.35;;;0.93;;
64235;SDS011;50564;47.402;9.740;2024-02-21T01:24:27;1.15;;;0.90;;
64235;SDS011;50564;47.402;9.740;2024-02-21T01:29:27;0.90;;;0.90;;
64235;SDS011;50564;47.402;9.740;2024-02-21T01:34:28;1.67;;;1.40;;
64235;SDS011;50564;47.402;9.740;2024-02-21T01:39:28;4.35;;;1.40;;
64235;SDS011;50564;47.402;9.740;2024-02-21T01:44:29;2.05;;;1.20;;
64235;SDS011;50564;47.402;9.740;2024-02-21T01:49:30;1.38;;;1.02;;
64235;SDS011;50564;47.402;9.740;2024-02-21T01:54:30;0.68;;;0.68;;
64235;SDS011;50564;47.402;9.740;2024-02-21T01:59:31;0.70;;;0.70;;
64235;SDS011;50564;47.402;9.740;2024-02-21T02:04:32;2.88;;;1.30;;
64235;SDS011;50564;47.402;9.740;2024-02-21T02:09:34;3.42;;;2.20;;
64235;SDS011;50564;47.402;9.740;2024-02-21T02:14:35;7.30;;;3.15;;
64235;SDS011;50564;47.402;9.740;2024-02-21T02:19:35;6.90;;;2.88;;
64235;SDS011;50564;47.402;9.740;2024-02-21T02:24:36;2.60;;;1.90;;
64235;SDS011;50564;47.402;9.740;2024-02-21T02:29:37;2.90;;;1.13;;
64235;SDS011;50564;47.402;9.740;2024-02-21T02:34:37;0.90;;;0.80;;
64235;SDS011;50564;47.402;9.740;2024-02-21T02:39:38;2.00;;;1.15;;
64235;SDS011;50564;47.402;9.740;2024-02-21T02:44:38;4.68;;;1.95;;
64235;SDS011;50564;47.402;9.740;2024-02-21T02:49:39;3.83;;;2.58;;
64235;SDS011;50564;47.402;9.740;2024-02-21T02:54:39;4.75;;;2.63;;
64235;SDS011;50564;47.402;9.740;2024-02-21T02:59:40;3.47;;;2.17;;
64235;SDS011;50564;47.402;9.740;2024-02-21T03:04:41;3.40;;;2.10;;
64235;SDS011;50564;47.402;9.740;2024-02-21T03:09:41;2.45;;;1.00;;
64235;SDS011;50564;47.402;9.740;2024-02-21T03:14:45;1.27;;;0.65;;
64235;SDS011;50564;47.402;9.740;2024-02-21T03:19:45;1.52;;;1.00;;
64235;SDS011;50564;47.402;9.740;2024-02-21T03:24:46;2.00;;;1.25;;
64235;SDS011;50564;47.402;9.740;2024-02-21T03:29:47;1.30;;;1.10;;
64235;SDS011;50564;47.402;9.740;2024-02-21T03:34:47;4.30;;;2.28;;
64235;SDS011;50564;47.402;9.740;2024-02-21T03:39:48;6.57;;;2.75;;
64235;SDS011;50564;47.402;9.740;2024-02-21T03:44:49;4.13;;;2.42;;
64235;SDS011;50564;47.402;9.740;2024-02-21T03:49:49;3.22;;;2.20;;
64235;SDS011;50564;47.402;9.740;2024-02-21T03:54:50;1.52;;;1.20;;
64235;SDS011;50564;47.402;9.740;2024-02-21T03:59:51;2.38;;;0.85;;
64235;SDS011;50564;47.402;9.740;2024-02-21T04:04:52;4.13;;;2.20;;
64235;SDS011;50564;47.402;9.740;2024-02-21T04:09:53;2.85;;;1.35;;
64235;SDS011;50564;47.402;9.740;2024-02-21T04:14:53;1.80;;;1.00;;
64235;SDS011;50564;47.402;9.740;2024-02-21T04:19:56;1.52;;;0.68;;
64235;SDS011;50564;47.402;9.740;2024-02-21T04:25:05;1.27;;;0.70;;
64235;SDS011;50564;47.402;9.740;2024-02-21T04:30:06;0.98;;;0.68;;
64235;SDS011;50564;47.402;9.740;2024-02-21T04:35:07;3.05;;;1.60;;
64235;SDS011;50564;47.402;9.740;2024-02-21T04:40:08;6.57;;;3.88;;
64235;SDS011;50564;47.402;9.740;2024-02-21T04:45:09;4.88;;;2.80;;
64235;SDS011;50564;47.402;9.740;2024-02-21T04:50:10;2.40;;;1.42;;
64235;SDS011;50564;47.402;9.740;2024-02-21T04:55:11;1.58;;;1.30;;
64235;SDS011;50564;47.402;9.740;2024-02-21T05:00:12;1.83;;;1.20;;
64235;SDS011;50564;47.402;9.740;2024-02-21T05:05:12;3.40;;;1.52;;
64235;SDS011;50564;47.402;9.740;2024-02-21T05:10:15;14.38;;;7.13;;
64235;SDS011;50564;47.402;9.740;2024-02-21T05:15:17;11.73;;;5.35;;
64235;SDS011;50564;47.402;9.740;2024-02-21T05:20:18;11.40;;;4.43;;
64235;SDS011;50564;47.402;9.740;2024-02-21T05:25:18;7.90;;;3.90;;
64235;SDS011;50564;47.402;9.740;2024-02-21T05:30:19;5.78;;;3.08;;
64235;SDS011;50564;47.402;9.740;2024-02-21T05:35:24;7.82;;;3.40;;
64235;SDS011;50564;47.402;9.740;2024-02-21T05:40:26;7.57;;;3.75;;
64235;SDS011;50564;47.402;9.740;2024-02-21T05:45:27;8.85;;;4.93;;
64235;SDS011;50564;47.402;9.740;2024-02-21T05:50:27;8.48;;;3.85;;
64235;SDS011;50564;47.402;9.740;2024-02-21T05:55:28;7.50;;;4.07;;
64235;SDS011;50564;47.402;9.740;2024-02-21T06:00:29;4.22;;;2.08;;
64235;SDS011;50564;47.402;9.740;2024-02-21T06:05:29;5.70;;;3.67;;
64235;SDS011;50564;47.402;9.740;2024-02-21T06:10:32;2.67;;;1.80;;
64235;SDS011;50564;47.402;9.740;2024-02-21T06:15:32;2.03;;;1.48;;
64235;SDS011;50564;47.402;9.740;2024-02-21T06:20:33;3.65;;;1.80;;
64235;SDS011;50564;47.402;9.740;2024-02-21T06:25:36;3.72;;;1.40;;
64235;SDS011;50564;47.402;9.740;2024-02-21T06:30:36;3.65;;;1.70;;
64235;SDS011;50564;47.402;9.740;2024-02-21T06:35:37;1.58;;;1.42;;
64235;SDS011;50564;47.402;9.740;2024-02-21T06:40:41;12.68;;;4.75;;
64235;SDS011;50564;47.402;9.740;2024-02-21T06:45:41;4.22;;;1.52;;
64235;SDS011;50564;47.402;9.740;2024-02-21T06:50:42;4.60;;;2.50;;
64235;SDS011;50564;47.402;9.740;2024-02-21T06:55:43;11.57;;;6.32;;
64235;SDS011;50564;47.402;9.740;2024-02-21T07:00:44;26.83;;;20.33;;
64235;SDS011;50564;47.402;9.740;2024-02-21T07:05:45;9.70;;;5.97;;
64235;SDS011;50564;47.402;9.740;2024-02-21T07:10:45;8.25;;;5.82;;
64235;SDS011;50564;47.402;9.740;2024-02-21T07:15:46;3.78;;;2.10;;
64235;SDS011;50564;47.402;9.740;2024-02-21T07:20:47;3.00;;;1.30;;
64235;SDS011;50564;47.402;9.740;2024-02-21T07:25:48;10.20;;;5.90;;
64235;SDS011;50564;47.402;9.740;2024-02-21T07:30:48;8.95;;;3.05;;
64235;SDS011;50564;47.402;9.740;2024-02-21T07:35:49;16.33;;;6.93;;
64235;SDS011;50564;47.402;9.740;2024-02-21T07:40:49;19.02;;;10.63;;
64235;SDS011;50564;47.402;9.740;2024-02-21T07:45:50;14.45;;;7.28;;
64235;SDS011;50564;47.402;9.740;2024-02-21T07:50:51;13.38;;;7.88;;
64235;SDS011;50564;47.402;9.740;2024-02-21T07:55:51;21.95;;;9.68;;
64235;SDS011;50564;47.402;9.740;2024-02-21T08:00:52;18.95;;;7.47;;
64235;SDS011;50564;47.402;9.740;2024-02-21T08:05:52;13.73;;;6.90;;
64235;SDS011;50564;47.402;9.740;2024-02-21T08:10:53;11.10;;;4.88;;
64235;SDS011;50564;47.402;9.740;2024-02-21T08:15:54;9.52;;;3.50;;
64235;SDS011;50564;47.402;9.740;2024-02-21T08:20:54;5.15;;;1.92;;
64235;SDS011;50564;47.402;9.740;2024-02-21T08:25:55;4.65;;;2.47;;
64235;SDS011;50564;47.402;9.740;2024-02-21T08:30:56;4.15;;;1.50;;
64235;SDS011;50564;47.402;9.740;2024-02-21T08:35:57;3.05;;;1.70;;
64235;SDS011;50564;47.402;9.740;2024-02-21T08:40:57;10.93;;;4.18;;
64235;SDS011;50564;47.402;9.740;2024-02-21T08:45:58;12.07;;;6.30;;
64235;SDS011;50564;47.402;9.740;2024-02-21T08:50:59;10.57;;;5.43;;
64235;SDS011;50564;47.402;9.740;2024-02-21T08:55:59;8.27;;;3.00;;
64235;SDS011;50564;47.402;9.740;2024-02-21T09:01:00;7.20;;;2.00;;
64235;SDS011;50564;47.402;9.740;2024-02-21T09:06:01;3.42;;;1.60;;
64235;SDS011;50564;47.402;9.740;2024-02-21T09:11:01;2.47;;;1.40;;
64235;SDS011;50564;47.402;9.740;2024-02-21T09:16:02;6.05;;;2.60;;
64235;SDS011;50564;47.402;9.740;2024-02-21T09:21:03;5.28;;;2.60;;
64235;SDS011;50564;47.402;9.740;2024-02-21T09:26:04;3.28;;;1.75;;
64235;SDS011;50564;47.402;9.740;2024-02-21T09:31:05;3.45;;;1.35;;
64235;SDS011;50564;47.402;9.740;2024-02-21T09:36:05;1.23;;;1.00;;
64235;SDS011;50564;47.402;9.740;2024-02-21T09:41:16;3.05;;;1.33;;
64235;SDS011;50564;47.402;9.740;2024-02-21T09:46:18;3.72;;;1.45;;
64235;SDS011;50564;47.402;9.740;2024-02-21T09:51:19;2.25;;;1.20;;
64235;SDS011;50564;47.402;9.740;2024-02-21T09:56:21;4.78;;;1.30;;
64235;SDS011;50564;47.402;9.740;2024-02-21T10:01:22;2.35;;;1.20;;
64235;SDS011;50564;47.402;9.740;2024-02-21T10:06:22;2.17;;;1.00;;
64235;SDS011;50564;47.402;9.740;2024-02-21T10:11:24;2.58;;;1.00;;
64235;SDS011;50564;47.402;9.740;2024-02-21T10:16:25;1.00;;;0.80;;
64235;SDS011;50564;47.402;9.740;2024-02-21T10:21:26;2.78;;;1.13;;
64235;SDS011;50564;47.402;9.740;2024-02-21T10:26:26;3.40;;;1.15;;
64235;SDS011;50564;47.402;9.740;2024-02-21T10:31:27;1.85;;;1.00;;
64235;SDS011;50564;47.402;9.740;2024-02-21T10:36:28;1.52;;;0.88;;
64235;SDS011;50564;47.402;9.740;2024-02-21T10:41:29;3.22;;;0.80;;
64235;SDS011;50564;47.402;9.740;2024-02-21T10:46:32;1.30;;;0.80;;
64235;SDS011;50564;47.402;9.740;2024-02-21T10:51:35;3.83;;;1.63;;
64235;SDS011;50564;47.402;9.740;2024-02-21T10:56:38;5.13;;;2.20;;
64235;SDS011;50564;47.402;9.740;2024-02-21T11:01:40;3.92;;;1.88;;
64235;SDS011;50564;47.402;9.740;2024-02-21T11:06:41;6.57;;;2.30;;
64235;SDS011;50564;47.402;9.740;2024-02-21T11:11:43;7.90;;;2.33;;
64235;SDS011;50564;47.402;9.740;2024-02-21T11:16:44;5.05;;;2.35;;
64235;SDS011;50564;47.402;9.740;2024-02-21T11:21:45;4.07;;;2.17;;
64235;SDS011;50564;47.402;9.740;2024-02-21T11:26:45;4.28;;;2.45;;
64235;SDS011;50564;47.402;9.740;2024-02-21T11:31:50;3.97;;;1.85;;
64235;SDS011;50564;47.402;9.740;2024-02-21T11:36:53;5.18;;;1.83;;
64235;SDS011;50564;47.402;9.740;2024-02-21T11:42:00;5.80;;;2.45;;
64235;SDS011;50564;47.402;9.740;2024-02-21T11:47:06;4.07;;;2.00;;
64235;SDS011;50564;47.402;9.740;2024-02-21T11:52:07;4.93;;;2.35;;
64235;SDS011;50564;47.402;9.740;2024-02-21T11:57:08;4.50;;;1.90;;
64235;SDS011;50564;47.402;9.740;2024-02-21T12:02:09;5.70;;;2.08;;
64235;SDS011;50564;47.402;9.740;2024-02-21T12:07:10;5.18;;;1.65;;
64235;SDS011;50564;47.402;9.740;2024-02-21T12:12:10;3.85;;;2.30;;
64235;SDS011;50564;47.402;9.740;2024-02-21T12:17:12;9.50;;;2.20;;
64235;SDS011;50564;47.402;9.740;2024-02-21T12:22:19;5.32;;;2.40;;
64235;SDS011;50564;47.402;9.740;2024-02-21T12:27:19;4.10;;;1.93;;
64235;SDS011;50564;47.402;9.740;2024-02-21T12:32:20;3.25;;;1.90;;
64235;SDS011;50564;47.402;9.740;2024-02-21T12:37:21;5.00;;;2.13;;
64235;SDS011;50564;47.402;9.740;2024-02-21T12:42:22;4.68;;;2.10;;
64235;SDS011;50564;47.402;9.740;2024-02-21T12:47:24;4.55;;;2.47;;
64235;SDS011;50564;47.402;9.740;2024-02-21T12:52:26;5.57;;;2.00;;
64235;SDS011;50564;47.402;9.740;2024-02-21T12:57:27;6.07;;;2.03;;
64235;SDS011;50564;47.402;9.740;2024-02-21T13:02:27;3.15;;;2.05;;
64235;SDS011;50564;47.402;9.740;2024-02-21T13:07:28;3.03;;;2.00;;
64235;SDS011;50564;47.402;9.740;2024-02-21T13:12:29;3.33;;;2.45;;
64235;SDS011;50564;47.402;9.740;2024-02-21T13:17:30;4.35;;;2.00;;
64235;SDS011;50564;47.402;9.740;2024-02-21T13:22:31;5.43;;;1.70;;
64235;SDS011;50564;47.402;9.740;2024-02-21T13:27:33;4.15;;;1.90;;
64235;SDS011;50564;47.402;9.740;2024-02-21T13:32:33;5.15;;;1.90;;
64235;SDS011;50564;47.402;9.740;2024-02-21T13:37:34;4.55;;;2.10;;
64235;SDS011;50564;47.402;9.740;2024-02-21T13:42:37;4.72;;;1.80;;
64235;SDS011;50564;47.402;9.740;2024-02-21T13:47:37;4.38;;;1.75;;
64235;SDS011;50564;47.402;9.740;2024-02-21T13:52:41;9.63;;;1.92;;
64235;SDS011;50564;47.402;9.740;2024-02-21T13:57:41;4.75;;;2.00;;
64235;SDS011;50564;47.402;9.740;2024-02-21T14:02:42;14.50;;;8.88;;
64235;SDS011;50564;47.402;9.740;2024-02-21T14:07:43;19.13;;;11.35;;
64235;SDS011;50564;47.402;9.740;2024-02-21T14:12:43;7.80;;;3.63;;
64235;SDS011;50564;47.402;9.740;2024-02-21T14:17:44;9.50;;;4.70;;
64235;SDS011;50564;47.402;9.740;2024-02-21T14:22:45;9.05;;;5.57;;
64235;SDS011;50564;47.402;9.740;2024-02-21T14:27:45;5.95;;;2.33;;
64235;SDS011;50564;47.402;9.740;2024-02-21T14:32:46;4.35;;;1.98;;
64235;SDS011;50564;47.402;9.740;2024-02-21T14:37:47;4.78;;;2.28;;
64235;SDS011;50564;47.402;9.740;2024-02-21T14:42:49;4.47;;;2.55;;
64235;SDS011;50564;47.402;9.740;2024-02-21T14:47:49;4.03;;;2.40;;
64235;SDS011;50564;47.402;9.740;2024-02-21T14:52:50;4.25;;;2.42;;
64235;SDS011;50564;47.402;9.740;2024-02-21T14:57:51;6.10;;;2.08;;
64235;SDS011;50564;47.402;9.740;2024-02-21T15:02:51;6.03;;;2.17;;
64235;SDS011;50564;47.402;9.740;2024-02-21T15:07:52;4.22;;;2.00;;
64235;SDS011;50564;47.402;9.740;2024-02-21T15:12:53;5.25;;;2.20;;
64235;SDS011;50564;47.402;9.740;2024-02-21T15:17:53;5.13;;;2.28;;
64235;SDS011;50564;47.402;9.740;2024-02-21T15:22:54;5.78;;;1.98;;
64235;SDS011;50564;47.402;9.740;2024-02-21T15:27:55;6.10;;;2.38;;
64235;SDS011;50564;47.402;9.740;2024-02-21T15:32:55;4.88;;;2.10;;
64235;SDS011;50564;47.402;9.740;2024-02-21T15:37:58;4.05;;;2.03;;
64235;SDS011;50564;47.402;9.740;2024-02-21T15:42:59;4.93;;;2.13;;
64235;SDS011;50564;47.402;9.740;2024-02-21T15:47:59;5.90;;;2.13;;
64235;SDS011;50564;47.402;9.740;2024-02-21T15:53:00;4.18;;;2.17;;
64235;SDS011;50564;47.402;9.740;2024-02-21T15:58:01;12.25;;;3.38;;
64235;SDS011;50564;47.402;9.740;2024-02-21T16:03:04;5.00;;;3.13;;
64235;SDS011;50564;47.402;9.740;2024-02-21T16:08:06;8.35;;;6.47;;
64235;SDS011;50564;47.402;9.740;2024-02-21T16:13:07;7.15;;;3.58;;
64235;SDS011;50564;47.402;9.740;2024-02-21T16:18:09;7.22;;;3.10;;
64235;SDS011;50564;47.402;9.740;2024-02-21T16:23:09;5.82;;;3.13;;
64235;SDS011;50564;47.402;9.740;2024-02-21T16:28:10;7.55;;;2.78;;
64235;SDS011;50564;47.402;9.740;2024-02-21T16:33:11;4.65;;;2.80;;
64235;SDS011;50564;47.402;9.740;2024-02-21T16:38:11;4.65;;;2.30;;
64235;SDS011;50564;47.402;9.740;2024-02-21T16:43:12;4.63;;;2.75;;
64235;SDS011;50564;47.402;9.740;2024-02-21T16:48:13;9.05;;;3.72;;
64235;SDS011;50564;47.402;9.740;2024-02-21T16:53:13;9.20;;;3.92;;
64235;SDS011;50564;47.402;9.740;2024-02-21T16:58:14;6.57;;;3.00;;
64235;SDS011;50564;47.402;9.740;2024-02-21T17:03:16;7.20;;;3.75;;
64235;SDS011;50564;47.402;9.740;2024-02-21T17:08:23;10.95;;;4.95;;
64235;SDS011;50564;47.402;9.740;2024-02-21T17:13:25;10.60;;;4.20;;
64235;SDS011;50564;47.402;9.740;2024-02-21T17:18:26;8.60;;;2.92;;
64235;SDS011;50564;47.402;9.740;2024-02-21T17:23:26;15.05;;;8.85;;
64235;SDS011;50564;47.402;9.740;2024-02-21T17:28:27;7.85;;;4.25;;
64235;SDS011;50564;47.402;9.740;2024-02-21T17:33:28;9.65;;;4.93;;
64235;SDS011;50564;47.402;9.740;2024-02-21T17:38:28;6.00;;;3.33;;
64235;SDS011;50564;47.402;9.740;2024-02-21T17:43:30;5.68;;;3.05;;
64235;SDS011;50564;47.402;9.740;2024-02-21T17:48:32;6.38;;;3.10;;
64235;SDS011;50564;47.402;9.740;2024-02-21T17:53:33;6.57;;;4.53;;
64235;SDS011;50564;47.402;9.740;2024-02-21T17:58:34;11.85;;;7.50;;
64235;SDS011;50564;47.402;9.740;2024-02-21T18:03:34;21.65;;;10.43;;
64235;SDS011;50564;47.402;9.740;2024-02-21T18:08:35;21.88;;;10.95;;
64235;SDS011;50564;47.402;9.740;2024-02-21T18:13:36;20.98;;;10.18;;
64235;SDS011;50564;47.402;9.740;2024-02-21T18:18:37;13.23;;;8.63;;
64235;SDS011;50564;47.402;9.740;2024-02-21T18:23:38;14.88;;;7.65;;
64235;SDS011;50564;47.402;9.740;2024-02-21T18:28:39;14.32;;;8.20;;
64235;SDS011;50564;47.402;9.740;2024-02-21T18:33:40;13.52;;;7.53;;
64235;SDS011;50564;47.402;9.740;2024-02-21T18:38:44;10.20;;;6.15;;
64235;SDS011;50564;47.402;9.740;2024-02-21T18:43:45;23.95;;;11.15;;
64235;SDS011;50564;47.402;9.740;2024-02-21T18:48:46;5.18;;;2.35;;
64235;SDS011;50564;47.402;9.740;2024-02-21T18:53:47;4.38;;;2.20;;
64235;SDS011;50564;47.402;9.740;2024-02-21T18:58:47;3.65;;;1.00;;
64235;SDS011;50564;47.402;9.740;2024-02-21T19:03:51;4.00;;;2.25;;
64235;SDS011;50564;47.402;9.740;2024-02-21T19:08:52;5.38;;;2.38;;
64235;SDS011;50564;47.402;9.740;2024-02-21T19:13:52;12.50;;;7.82;;
64235;SDS011;50564;47.402;9.740;2024-02-21T19:18:54;10.85;;;7.10;;
64235;SDS011;50564;47.402;9.740;2024-02-21T19:23:55;9.38;;;4.38;;
64235;SDS011;50564;47.402;9.740;2024-02-21T19:28:56;7.35;;;3.28;;
64235;SDS011;50564;47.402;9.740;2024-02-21T19:33:57;3.75;;;1.50;;
64235;SDS011;50564;47.402;9.740;2024-02-21T19:38:58;6.28;;;3.15;;
64235;SDS011;50564;47.402;9.740;2024-02-21T19:43:59;6.82;;;3.58;;
64235;SDS011;50564;47.402;9.740;2024-02-21T19:49:00;6.90;;;3.95;;
64235;SDS011;50564;47.402;9.740;2024-02-21T19:54:01;6.85;;;3.53;;
64235;SDS011;50564;47.402;9.740;2024-02-21T19:59:03;4.68;;;1.90;;
64235;SDS011;50564;47.402;9.740;2024-02-21T20:04:06;6.30;;;2.40;;
64235;SDS011;50564;47.402;9.740;2024-02-21T20:09:09;2.30;;;1.13;;
64235;SDS011;50564;47.402;9.740;2024-02-21T20:14:11;2.28;;;0.60;;
64235;SDS011;50564;47.402;9.740;2024-02-21T20:19:12;2.50;;;1.10;;
64235;SDS011;50564;47.402;9.740;2024-02-21T20:24:16;3.13;;;0.88;;
64235;SDS011;50564;47.402;9.740;2024-02-21T20:29:17;0.73;;;0.73;;
64235;SDS011;50564;47.402;9.740;2024-02-21T20:34:17;2.53;;;1.33;;
64235;SDS011;50564;47.402;9.740;2024-02-21T20:39:18;7.57;;;4.20;;
64235;SDS011;50564;47.402;9.740;2024-02-21T20:44:20;6.03;;;3.20;;
64235;SDS011;50564;47.402;9.740;2024-02-21T20:49:20;7.22;;;3.55;;
64235;SDS011;50564;47.402;9.740;2024-02-21T20:54:21;6.53;;;3.35;;
64235;SDS011;50564;47.402;9.740;2024-02-21T20:59:22;8.63;;;3.47;;
64235;SDS011;50564;47.402;9.740;2024-02-21T21:04:23;4.10;;;2.28;;
64235;SDS011;50564;47.402;9.740;2024-02-21T21:09:24;4.30;;;1.48;;
64235;SDS011;50564;47.402;9.740;2024-02-21T21:14:26;2.35;;;0.98;;
64235;SDS011;50564;47.402;9.740;2024-02-21T21:19:29;3.33;;;0.93;;
64235;SDS011;50564;47.402;9.740;2024-02-21T21:24:35;2.50;;;1.60;;
64235;SDS011;50564;47.402;9.740;2024-02-21T21:29:35;6.95;;;3.45;;
64235;SDS011;50564;47.402;9.740;2024-02-21T21:34:36;9.43;;;3.70;;
64235;SDS011;50564;47.402;9.740;2024-02-21T21:39:36;7.38;;;3.83;;
64235;SDS011;50564;47.402;9.740;2024-02-21T21:44:37;6.93;;;3.80;;
64235;SDS011;50564;47.402;9.740;2024-02-21T21:49:38;7.63;;;3.78;;
64235;SDS011;50564;47.402;9.740;2024-02-21T21:54:38;7.90;;;3.80;;
64235;SDS011;50564;47.402;9.740;2024-02-21T21:59:40;12.50;;;4.80;;
64235;SDS011;50564;47.402;9.740;2024-02-21T22:04:40;4.47;;;3.03;;
64235;SDS011;50564;47.402;9.740;2024-02-21T22:09:41;1.80;;;1.15;;
64235;SDS011;50564;47.402;9.740;2024-02-21T22:14:42;7.28;;;3.65;;
64235;SDS011;50564;47.402;9.740;2024-02-21T22:19:42;9.63;;;5.82;;
64235;SDS011;50564;47.402;9.740;2024-02-21T22:24:43;10.05;;;5.85;;
64235;SDS011;50564;47.402;9.740;2024-02-21T22:29:44;9.35;;;5.88;;
64235;SDS011;50564;47.402;9.740;2024-02-21T22:34:45;10.38;;;5.93;;
64235;SDS011;50564;47.402;9.740;2024-02-21T22:39:46;12.60;;;7.00;;
64235;SDS011;50564;47.402;9.740;2024-02-21T22:44:46;13.32;;;7.07;;
64235;SDS011;50564;47.402;9.740;2024-02-21T22:49:47;11.02;;;5.72;;
64235;SDS011;50564;47.402;9.740;2024-02-21T22:54:47;11.70;;;6.10;;
64235;SDS011;50564;47.402;9.740;2024-02-21T22:59:48;13.02;;;6.00;;
64235;SDS011;50564;47.402;9.740;2024-02-21T23:04:49;10.13;;;5.88;;
64235;SDS011;50564;47.402;9.740;2024-02-21T23:09:50;14.13;;;7.75;;
64235;SDS011;50564;47.402;9.740;2024-02-21T23:14:50;14.00;;;6.53;;
64235;SDS011;50564;47.402;9.740;2024-02-21T23:19:51;15.32;;;7.60;;
64235;SDS011;50564;47.402;9.740;2024-02-21T23:24:52;12.90;;;6.60;;
64235;SDS011;50564;47.402;9.740;2024-02-21T23:29:53;12.15;;;5.50;;
64235;SDS011;50564;47.402;9.740;2024-02-21T23:34:53;12.13;;;6.60;;
64235;SDS011;50564;47.402;9.740;2024-02-21T23:39:54;20.50;;;9.95;;
64235;SDS011;50564;47.402;9.740;2024-02-21T23:44:55;29.60;;;11.68;;
64235;SDS011;50564;47.402;9.740;2024-02-21T23:49:55;33.63;;;13.30;;
64235;SDS011;50564;47.402;9.740;2024-02-21T23:54:56;17.75;;;6.20;;
64235;SDS011;50564;47.402;9.740;2024-02-21T23:59:57;4.90;;;2.90;;
